createdAt,value
2022-12-11T00:01:50.893Z,51.60
2022-12-11T00:04:21.383Z,59.10
2022-12-11T00:06:51.841Z,51.00
2022-12-11T00:09:23.672Z,59.00
2022-12-11T00:11:54.229Z,49.40
2022-12-11T00:14:24.836Z,51.50
2022-12-11T00:16:55.413Z,52.80
2022-12-11T00:19:26.054Z,48.00
2022-12-11T00:21:56.525Z,54.70
2022-12-11T00:24:27.019Z,54.00
2022-12-11T00:26:57.374Z,49.60
2022-12-11T00:29:27.792Z,54.10
2022-12-11T00:31:58.303Z,42.20
2022-12-11T00:34:29.128Z,49.90
2022-12-11T00:37:00.454Z,53.80
2022-12-11T00:39:31.068Z,45.60
2022-12-11T00:42:01.532Z,52.70
2022-12-11T00:44:31.986Z,52.40
2022-12-11T00:47:02.443Z,54.10
2022-12-11T00:49:32.883Z,45.60
2022-12-11T00:52:03.302Z,51.70
2022-12-11T00:54:34.800Z,54.00
2022-12-11T00:57:05.092Z,56.90
2022-12-11T00:59:35.508Z,45.30
2022-12-11T01:02:06.164Z,49.10
2022-12-11T01:04:38.239Z,48.60
2022-12-11T01:07:08.800Z,55.10
2022-12-11T01:09:56.816Z,52.30
2022-12-11T01:12:28.589Z,50.30
2022-12-11T01:14:58.944Z,54.20
2022-12-11T01:17:29.294Z,53.80
2022-12-11T01:19:59.736Z,49.40
2022-12-11T01:22:30.250Z,47.10
2022-12-11T01:25:00.714Z,52.10
2022-12-11T01:27:31.262Z,42.30
2022-12-11T01:30:01.713Z,50.70
2022-12-11T01:32:32.215Z,53.50
2022-12-11T01:35:03.591Z,43.90
2022-12-11T01:40:03.526Z,50.90
2022-12-11T01:42:34.727Z,51.80
2022-12-11T01:45:33.334Z,49.60
2022-12-11T01:48:09.731Z,54.20
2022-12-11T01:50:47.023Z,53.50
2022-12-11T01:53:22.327Z,46.90
2022-12-11T01:55:56.146Z,47.80
2022-12-11T01:58:30.561Z,43.40
2022-12-11T02:01:02.009Z,49.50
2022-12-11T02:03:33.169Z,50.40
2022-12-11T02:06:03.841Z,44.40
2022-12-11T02:08:34.705Z,53.30
2022-12-11T02:11:14.072Z,46.90
2022-12-11T02:13:50.182Z,45.60
2022-12-11T02:16:27.645Z,49.00
2022-12-11T02:19:09.898Z,45.30
2022-12-11T02:21:47.845Z,45.20
2022-12-11T02:24:30.934Z,42.90
2022-12-11T02:27:20.858Z,48.40
2022-12-11T02:29:55.328Z,46.60
2022-12-11T02:32:31.560Z,46.70
2022-12-11T02:35:09.595Z,47.20
2022-12-11T02:37:43.339Z,45.50
2022-12-11T02:40:18.092Z,45.90
2022-12-11T02:42:50.428Z,55.60
2022-12-11T02:45:23.306Z,53.40
2022-12-11T02:47:54.332Z,44.90
2022-12-11T02:50:26.528Z,47.40
2022-12-11T02:52:58.861Z,49.30
2022-12-11T02:55:34.039Z,48.70
2022-12-11T02:58:07.501Z,46.60
2022-12-11T03:00:38.081Z,52.80
2022-12-11T03:03:09.467Z,45.00
2022-12-11T03:05:40.578Z,49.20
2022-12-11T03:08:12.201Z,46.70
2022-12-11T03:10:42.620Z,41.60
2022-12-11T03:13:14.583Z,46.30
2022-12-11T03:15:56.563Z,52.20
2022-12-11T03:18:34.496Z,53.10
2022-12-11T03:21:09.346Z,50.30
2022-12-11T03:23:48.694Z,47.20
2022-12-11T03:26:24.164Z,48.40
2022-12-11T03:29:00.930Z,40.10
2022-12-11T03:31:38.521Z,51.90
2022-12-11T03:34:15.055Z,49.10
2022-12-11T03:36:48.479Z,37.40
2022-12-11T03:39:24.067Z,51.60
2022-12-11T03:41:56.967Z,44.20
2022-12-11T03:44:30.148Z,41.40
2022-12-11T03:47:03.593Z,48.50
2022-12-11T03:49:39.713Z,52.80
2022-12-11T03:52:13.100Z,58.80
2022-12-11T03:54:47.800Z,44.60
2022-12-11T03:57:23.173Z,48.50
2022-12-11T03:59:53.716Z,51.20
2022-12-11T04:02:24.151Z,59.70
2022-12-11T04:04:54.788Z,60.70
2022-12-11T04:07:25.265Z,58.90
2022-12-11T04:09:55.723Z,64.50
2022-12-11T04:12:26.457Z,61.70
2022-12-11T04:15:03.089Z,56.70
2022-12-11T04:17:54.287Z,62.00
2022-12-11T04:20:42.738Z,58.90
2022-12-11T04:23:33.759Z,66.50
2022-12-11T04:26:08.715Z,81.50
2022-12-11T04:28:43.105Z,56.00
2022-12-11T04:31:16.931Z,76.30
2022-12-11T04:33:47.400Z,75.30
2022-12-11T04:36:18.010Z,73.70
2022-12-11T04:38:48.497Z,60.70
2022-12-11T04:41:19.887Z,71.30
2022-12-11T04:43:50.422Z,58.60
2022-12-11T04:46:23.407Z,51.10
2022-12-11T04:48:57.611Z,64.90
2022-12-11T04:51:29.425Z,68.60
2022-12-11T04:54:00.845Z,67.50
2022-12-11T04:56:31.392Z,67.20
2022-12-11T04:59:02.032Z,54.80
2022-12-11T05:01:32.476Z,71.90
2022-12-11T05:04:02.963Z,66.20
2022-12-11T05:06:33.412Z,69.70
2022-12-11T05:09:04.389Z,68.10
2022-12-11T05:11:34.787Z,57.80
2022-12-11T05:14:05.652Z,54.10
2022-12-11T05:16:36.097Z,67.50
2022-12-11T05:19:06.469Z,61.60
2022-12-11T05:21:36.986Z,70.60
2022-12-11T05:24:08.574Z,60.40
2022-12-11T05:26:39.120Z,58.30
2022-12-11T05:29:09.560Z,68.90
2022-12-11T05:31:40.018Z,59.20
2022-12-11T05:34:10.453Z,57.00
2022-12-11T05:36:40.996Z,63.50
2022-12-11T05:39:12.521Z,64.90
2022-12-11T05:41:42.969Z,75.00
2022-12-11T05:44:14.669Z,64.80
2022-12-11T05:46:45.198Z,49.10
2022-12-11T05:49:19.625Z,64.50
2022-12-11T05:51:50.419Z,61.50
2022-12-11T05:54:20.791Z,70.30
2022-12-11T05:56:52.210Z,87.60
2022-12-11T06:01:51.673Z,70.00
2022-12-11T06:04:22.212Z,81.50
2022-12-11T06:06:54.638Z,69.40
2022-12-11T06:09:25.087Z,80.10
2022-12-11T06:11:55.384Z,78.00
2022-12-11T06:14:26.677Z,77.00
2022-12-11T06:19:25.882Z,73.10
2022-12-11T06:21:56.187Z,60.30
2022-12-11T06:24:26.611Z,70.60
2022-12-11T06:26:56.923Z,67.00
2022-12-11T06:29:27.333Z,74.80
2022-12-11T06:31:57.846Z,66.90
2022-12-11T06:34:28.826Z,64.30
2022-12-11T06:36:59.231Z,67.70
2022-12-11T06:39:32.135Z,72.20
2022-12-11T06:42:02.497Z,76.00
2022-12-11T06:44:36.064Z,79.60
2022-12-11T06:47:07.313Z,73.10
2022-12-11T06:52:07.998Z,75.90
2022-12-11T06:54:38.350Z,79.70
2022-12-11T06:57:10.237Z,62.90
2022-12-11T06:59:40.930Z,83.90
2022-12-11T07:02:13.651Z,84.80
2022-12-11T07:04:44.905Z,75.40
2022-12-11T07:09:44.485Z,76.60
2022-12-11T07:12:14.982Z,79.20
2022-12-11T07:14:45.508Z,72.60
2022-12-11T07:17:15.887Z,87.80
2022-12-11T07:19:46.513Z,78.70
2022-12-11T07:22:17.017Z,99.50
2022-12-11T07:24:47.462Z,87.50
2022-12-11T07:27:17.899Z,76.90
2022-12-11T07:29:48.332Z,79.00
2022-12-11T07:32:18.815Z,72.20
2022-12-11T07:34:52.079Z,61.10
2022-12-11T07:37:23.206Z,72.50
2022-12-11T07:39:53.531Z,104.50
2022-12-11T07:42:23.970Z,102.30
2022-12-11T07:45:12.265Z,108.00
2022-12-11T07:48:04.657Z,92.60
2022-12-11T07:53:11.027Z,67.90
2022-12-11T07:56:05.750Z,80.80
2022-12-11T07:58:36.981Z,78.30
2022-12-11T08:01:12.309Z,76.30
2022-12-11T08:03:43.427Z,88.80
2022-12-11T08:06:14.221Z,81.30
2022-12-11T08:08:45.081Z,80.60
2022-12-11T08:11:16.881Z,79.90
2022-12-11T08:13:47.341Z,71.70
2022-12-11T08:16:18.864Z,80.90
2022-12-11T08:18:50.395Z,69.10
2022-12-11T08:21:23.325Z,67.40
2022-12-11T08:23:54.663Z,71.20
2022-12-11T08:28:55.857Z,66.70
2022-12-11T08:31:26.757Z,65.70
2022-12-11T08:33:58.233Z,65.00
2022-12-11T08:36:29.128Z,68.10
2022-12-11T08:38:59.460Z,58.00
2022-12-11T08:41:31.299Z,71.50
2022-12-11T08:44:01.906Z,63.80
2022-12-11T08:46:34.513Z,63.80
2022-12-11T08:49:05.041Z,60.10
2022-12-11T08:51:35.651Z,70.70
2022-12-11T08:54:06.248Z,59.10
2022-12-11T08:56:36.592Z,64.30
2022-12-11T08:59:07.541Z,60.10
2022-12-11T09:01:38.129Z,58.00
2022-12-11T09:04:08.645Z,58.80
2022-12-11T09:06:40.264Z,60.20
2022-12-11T09:09:13.210Z,60.60
2022-12-11T09:11:46.759Z,63.40
2022-12-11T09:14:17.697Z,59.00
2022-12-11T09:16:50.121Z,62.90
2022-12-11T09:19:21.245Z,62.90
2022-12-11T09:21:53.512Z,66.90
2022-12-11T09:24:25.986Z,61.20
2022-12-11T09:27:01.485Z,76.90
2022-12-11T09:29:34.210Z,64.50
2022-12-11T09:32:04.821Z,65.40
2022-12-11T09:34:35.629Z,71.10
2022-12-11T09:37:09.898Z,58.90
2022-12-11T09:39:43.653Z,57.80
2022-12-11T09:42:22.124Z,66.20
2022-12-11T09:44:56.016Z,62.20
2022-12-11T09:47:33.103Z,68.50
2022-12-11T09:50:16.948Z,64.90
2022-12-11T09:53:02.402Z,61.50
2022-12-11T09:55:41.703Z,68.70
2022-12-11T09:58:23.528Z,61.00
2022-12-11T10:01:05.794Z,51.00
2022-12-11T10:04:05.625Z,69.80
2022-12-11T10:06:48.424Z,63.90
2022-12-11T10:09:27.776Z,57.10
2022-12-11T10:12:08.783Z,64.40
2022-12-11T10:14:49.475Z,66.60
2022-12-11T10:17:26.987Z,66.30
2022-12-11T10:19:59.135Z,59.00
2022-12-11T10:22:33.600Z,71.00
2022-12-11T10:25:11.326Z,56.90
2022-12-11T10:27:44.835Z,59.90
2022-12-11T10:30:20.408Z,60.70
2022-12-11T10:33:02.311Z,64.90
2022-12-11T10:35:37.632Z,58.50
2022-12-11T10:38:26.272Z,67.20
2022-12-11T10:40:59.280Z,65.80
2022-12-11T10:43:38.534Z,51.60
2022-12-11T10:46:15.745Z,59.50
2022-12-11T10:48:50.258Z,60.00
2022-12-11T10:51:22.129Z,62.40
2022-12-11T10:54:04.059Z,67.30
2022-12-11T10:56:39.057Z,65.10
2022-12-11T10:59:22.650Z,60.50
2022-12-11T11:01:54.639Z,64.10
2022-12-11T11:04:32.171Z,64.10
2022-12-11T11:07:13.381Z,62.40
2022-12-11T11:09:44.247Z,68.10
2022-12-11T11:12:27.317Z,66.90
2022-12-11T11:15:06.800Z,79.20
2022-12-11T11:17:54.468Z,66.20
2022-12-11T11:20:28.393Z,60.60
2022-12-11T11:23:01.708Z,62.60
2022-12-11T11:25:34.560Z,60.10
2022-12-11T11:28:06.909Z,58.30
2022-12-11T11:30:40.956Z,62.10
2022-12-11T11:33:18.721Z,58.00
2022-12-11T11:35:57.406Z,58.30
2022-12-11T11:38:31.643Z,54.00
2022-12-11T11:41:15.045Z,55.90
2022-12-11T11:43:49.972Z,59.90
2022-12-11T11:46:25.271Z,54.10
2022-12-11T11:49:02.353Z,63.10
2022-12-11T11:51:35.926Z,55.80
2022-12-11T11:54:17.896Z,59.10
2022-12-11T11:56:52.774Z,59.40
2022-12-11T11:59:29.292Z,57.60
2022-12-11T12:02:00.532Z,53.50
2022-12-11T12:04:36.995Z,61.30
2022-12-11T12:07:22.471Z,57.80
2022-12-11T12:10:00.118Z,57.70
2022-12-11T12:12:41.710Z,53.10
2022-12-11T12:15:30.629Z,62.10
2022-12-11T12:18:11.044Z,57.90
2022-12-11T12:20:49.326Z,55.00
2022-12-11T12:23:52.471Z,47.50
2022-12-11T12:26:29.051Z,53.10
2022-12-11T12:29:11.352Z,50.10
2022-12-11T12:31:56.969Z,60.80
2022-12-11T12:34:42.425Z,57.30
2022-12-11T12:37:22.115Z,58.40
2022-12-11T12:40:02.238Z,57.80
2022-12-11T12:42:41.787Z,55.90
2022-12-11T12:45:25.252Z,49.80
2022-12-11T12:47:55.860Z,51.90
2022-12-11T12:50:30.460Z,54.00
2022-12-11T12:53:01.416Z,61.00
2022-12-11T12:55:34.047Z,57.20
2022-12-11T12:58:07.025Z,61.80
2022-12-11T13:00:39.920Z,65.00
2022-12-11T13:03:18.285Z,59.70
2022-12-11T13:05:59.640Z,51.00
2022-12-11T13:08:32.691Z,55.40
2022-12-11T13:11:07.395Z,54.80
2022-12-11T13:13:43.293Z,56.30
2022-12-11T13:16:35.554Z,63.60
2022-12-11T13:19:17.292Z,50.60
2022-12-11T13:21:58.337Z,54.90
2022-12-11T13:24:30.777Z,57.60
2022-12-11T13:27:11.974Z,55.30
2022-12-11T13:29:43.717Z,60.70
2022-12-11T13:32:31.913Z,55.40
2022-12-11T13:35:07.358Z,59.80
2022-12-11T13:37:42.143Z,55.80
2022-12-11T13:40:20.969Z,56.20
2022-12-11T13:42:56.709Z,58.20
2022-12-11T13:45:31.254Z,58.80
2022-12-11T13:48:02.516Z,57.40
2022-12-11T13:50:36.149Z,51.90
2022-12-11T13:53:08.182Z,48.50
2022-12-11T13:55:38.693Z,51.90
2022-12-11T13:58:19.746Z,55.30
2022-12-11T14:01:04.028Z,56.20
2022-12-11T14:03:35.178Z,52.80
2022-12-11T14:06:14.884Z,53.20
2022-12-11T14:08:53.222Z,50.00
2022-12-11T14:11:29.326Z,57.40
2022-12-11T14:14:01.814Z,53.50
2022-12-11T14:16:33.218Z,47.30
2022-12-11T14:19:07.188Z,56.10
2022-12-11T14:21:38.143Z,52.60
2022-12-11T14:24:13.230Z,56.50
2022-12-11T14:26:53.517Z,56.00
2022-12-11T14:29:33.073Z,51.70
2022-12-11T14:32:06.461Z,58.90
2022-12-11T14:34:40.729Z,51.10
2022-12-11T14:37:12.083Z,58.00
2022-12-11T14:42:16.672Z,51.40
2022-12-11T14:44:53.221Z,52.10
2022-12-11T14:47:27.066Z,50.30
2022-12-11T14:50:02.550Z,50.50
2022-12-11T14:52:37.570Z,56.40
2022-12-11T14:55:14.262Z,51.10
2022-12-11T14:57:49.118Z,49.30
2022-12-11T15:00:30.311Z,54.20
2022-12-11T15:03:04.383Z,55.10
2022-12-11T15:05:40.846Z,51.30
2022-12-11T15:08:31.237Z,53.80
2022-12-11T15:11:08.022Z,57.10
2022-12-11T15:13:47.499Z,46.20
2022-12-11T15:16:18.790Z,52.90
2022-12-11T15:21:29.078Z,52.60
2022-12-11T15:24:01.597Z,55.80
2022-12-11T15:26:41.267Z,48.50
2022-12-11T15:29:27.714Z,51.80
2022-12-11T15:32:18.575Z,59.10
2022-12-11T15:34:50.979Z,54.60
2022-12-11T15:37:27.451Z,47.80
2022-12-11T15:39:59.941Z,55.30
2022-12-11T15:42:33.301Z,47.00
2022-12-11T15:45:06.653Z,64.40
2022-12-11T15:47:37.375Z,58.60
2022-12-11T15:50:18.552Z,61.00
2022-12-11T15:52:49.731Z,56.90
2022-12-11T15:55:21.517Z,60.90
2022-12-11T15:57:55.482Z,56.70
2022-12-11T16:00:27.637Z,60.50
2022-12-11T16:02:58.943Z,62.00
2022-12-11T16:08:00.523Z,58.10
2022-12-11T16:10:32.102Z,57.80
2022-12-11T16:13:02.808Z,64.20
2022-12-11T16:15:33.327Z,61.30
2022-12-11T16:18:06.278Z,55.30
2022-12-11T16:20:37.986Z,57.90
2022-12-11T16:23:09.299Z,57.20
2022-12-11T16:28:12.706Z,61.80
2022-12-11T16:30:44.451Z,59.90
2022-12-11T16:33:15.068Z,55.30
2022-12-11T16:35:45.653Z,57.90
2022-12-11T16:38:16.135Z,65.60
2022-12-11T16:40:46.614Z,57.90
2022-12-11T16:43:17.019Z,66.90
2022-12-11T16:45:49.373Z,61.40
2022-12-11T16:48:20.211Z,60.40
2022-12-11T16:50:53.780Z,58.90
2022-12-11T16:53:24.560Z,61.20
2022-12-11T16:55:55.235Z,62.20
2022-12-11T16:58:25.726Z,63.50
2022-12-11T17:01:02.463Z,69.60
2022-12-11T17:03:33.631Z,57.00
2022-12-11T17:06:06.924Z,55.50
2022-12-11T17:08:37.776Z,60.70
2022-12-11T17:11:10.167Z,68.60
2022-12-11T17:13:41.805Z,74.90
2022-12-11T17:16:15.111Z,63.80
2022-12-11T17:18:46.016Z,56.50
2022-12-11T17:21:19.429Z,58.10
2022-12-11T17:23:50.541Z,60.30
2022-12-11T17:26:21.356Z,57.20
2022-12-11T17:28:52.152Z,61.60
2022-12-11T17:31:22.678Z,63.00
2022-12-11T17:33:54.044Z,56.40
2022-12-11T17:38:54.197Z,60.50
2022-12-11T17:41:24.748Z,55.30
2022-12-11T17:43:56.591Z,64.10
2022-12-11T17:46:27.281Z,64.20
2022-12-11T17:49:00.220Z,53.90
2022-12-11T17:51:31.024Z,57.00
2022-12-11T17:54:02.091Z,61.10
2022-12-11T17:56:36.170Z,53.90
2022-12-11T17:59:06.642Z,65.80
2022-12-11T18:01:37.665Z,62.20
2022-12-11T18:04:08.176Z,62.70
2022-12-11T18:06:38.838Z,62.60
2022-12-11T18:09:10.239Z,70.70
2022-12-11T18:11:40.823Z,66.10
2022-12-11T18:14:16.878Z,61.80
2022-12-11T18:16:48.458Z,53.20
2022-12-11T18:19:22.722Z,61.50
2022-12-11T18:21:53.891Z,52.00
2022-12-11T18:24:25.908Z,53.50
2022-12-11T18:26:56.476Z,54.30
2022-12-11T18:29:27.278Z,55.10
2022-12-11T18:31:57.718Z,70.10
2022-12-11T18:34:28.222Z,59.00
2022-12-11T18:36:58.714Z,53.90
2022-12-11T18:39:29.143Z,58.40
2022-12-11T18:42:31.064Z,53.90
2022-12-11T18:44:50.095Z,55.80
2022-12-11T18:47:21.870Z,49.00
2022-12-11T18:49:52.539Z,56.20
2022-12-11T18:52:23.176Z,56.50
2022-12-11T18:54:53.632Z,56.80
2022-12-11T18:57:24.080Z,62.40
2022-12-11T18:59:55.206Z,48.70
2022-12-11T19:02:25.708Z,54.20
2022-12-11T19:04:56.408Z,50.80
2022-12-11T19:07:27.049Z,60.10
2022-12-11T19:09:57.560Z,57.10
2022-12-11T19:12:28.086Z,63.20
2022-12-11T19:14:58.544Z,53.60
2022-12-11T19:17:29.171Z,66.70
2022-12-11T19:20:05.349Z,54.50
2022-12-11T19:22:49.786Z,50.00
2022-12-11T19:25:20.494Z,48.60
2022-12-11T19:27:50.986Z,57.70
2022-12-11T19:30:21.916Z,55.50
2022-12-11T19:32:52.592Z,51.40
2022-12-11T19:35:23.146Z,53.30
2022-12-11T19:37:53.791Z,46.90
2022-12-11T19:40:26.686Z,52.30
2022-12-11T19:42:57.325Z,50.30
2022-12-11T19:45:29.126Z,55.30
2022-12-11T19:47:59.604Z,47.10
2022-12-11T19:50:30.164Z,51.40
2022-12-11T19:53:00.833Z,48.50
2022-12-11T19:55:31.368Z,43.80
2022-12-11T19:58:02.021Z,48.80
2022-12-11T20:00:32.567Z,44.00
2022-12-11T20:03:03.390Z,47.40
2022-12-11T20:05:35.937Z,39.10
2022-12-11T20:08:42.325Z,30.30
2022-12-11T20:11:07.247Z,33.10
2022-12-11T20:13:40.718Z,37.00
2022-12-11T20:16:13.208Z,36.00
2022-12-11T20:18:43.848Z,38.20
2022-12-11T20:21:21.971Z,38.30
2022-12-11T20:23:55.077Z,38.50
2022-12-11T20:26:27.781Z,38.80
2022-12-11T20:28:59.616Z,36.60
2022-12-11T20:31:30.531Z,34.20
2022-12-11T20:34:01.564Z,40.70
2022-12-11T20:36:32.119Z,33.90
2022-12-11T20:39:02.601Z,38.40
2022-12-11T20:41:33.155Z,37.40
2022-12-11T20:44:03.906Z,37.50
2022-12-11T20:46:34.356Z,50.90
2022-12-11T20:49:05.054Z,53.10
2022-12-11T20:51:35.513Z,47.10
2022-12-11T20:54:06.331Z,36.90
2022-12-11T20:56:37.030Z,44.10
2022-12-11T20:59:07.552Z,46.00
2022-12-11T21:01:38.084Z,49.50
2022-12-11T21:04:08.504Z,41.20
2022-12-11T21:06:41.941Z,40.70
2022-12-11T21:09:17.856Z,39.80
2022-12-11T21:11:48.459Z,39.50
2022-12-11T21:14:20.461Z,44.20
2022-12-11T21:16:51.096Z,44.10
2022-12-11T21:19:21.825Z,46.10
2022-12-11T21:21:53.641Z,55.20
2022-12-11T21:24:26.368Z,42.90
2022-12-11T21:26:59.129Z,50.60
2022-12-11T21:29:30.535Z,47.90
2022-12-11T21:32:01.421Z,44.50
2022-12-11T21:34:31.962Z,41.40
2022-12-11T21:37:02.506Z,43.40
2022-12-11T21:39:38.953Z,43.10
2022-12-11T21:42:10.026Z,41.00
2022-12-11T21:47:31.150Z,36.20
2022-12-11T21:50:01.632Z,38.60
2022-12-11T21:52:32.147Z,39.50
2022-12-11T21:55:03.525Z,38.10
2022-12-11T22:00:04.487Z,37.60
2022-12-11T22:02:42.639Z,43.10
2022-12-11T22:05:13.484Z,31.80
2022-12-11T22:07:44.194Z,35.90
2022-12-11T22:10:14.834Z,34.80
2022-12-11T22:12:45.305Z,32.70
2022-12-11T22:15:16.024Z,36.60
2022-12-11T22:17:46.610Z,43.40
2022-12-11T22:20:17.102Z,36.00
2022-12-11T22:22:47.873Z,32.60
2022-12-11T22:25:19.098Z,37.60
2022-12-11T22:27:50.952Z,35.40
2022-12-11T22:30:21.658Z,37.50
2022-12-11T22:32:51.977Z,37.90
2022-12-11T22:35:27.022Z,34.50
2022-12-11T22:37:57.891Z,36.30
2022-12-11T22:40:28.438Z,33.30
2022-12-11T22:42:59.729Z,39.70
2022-12-11T22:47:59.020Z,59.80
2022-12-11T22:50:29.494Z,54.20
2022-12-11T22:52:59.884Z,55.30
2022-12-11T22:55:30.406Z,54.80
2022-12-11T22:58:01.182Z,62.90
2022-12-11T23:00:31.697Z,59.50
2022-12-11T23:03:02.361Z,60.00
2022-12-11T23:05:32.778Z,57.40
2022-12-11T23:08:03.395Z,61.90
2022-12-11T23:10:33.970Z,68.90
2022-12-11T23:13:04.441Z,59.70
2022-12-11T23:15:34.863Z,76.70
2022-12-11T23:18:05.527Z,59.50
2022-12-11T23:20:36.087Z,61.90
2022-12-11T23:23:06.508Z,63.60
2022-12-11T23:25:36.879Z,54.10
2022-12-11T23:28:07.563Z,59.30
2022-12-11T23:30:37.944Z,63.20
2022-12-11T23:33:08.380Z,64.90
2022-12-11T23:35:38.837Z,65.30
2022-12-11T23:38:09.285Z,63.30
2022-12-11T23:40:40.106Z,68.10
2022-12-11T23:43:10.562Z,74.20
2022-12-11T23:45:43.788Z,65.80
2022-12-11T23:48:14.675Z,58.00
2022-12-11T23:50:45.675Z,62.50
2022-12-11T23:53:16.179Z,63.20
2022-12-11T23:55:47.633Z,64.50
2022-12-11T23:58:18.061Z,70.40
